Flight Track Log - Related Links

Times and Time Zones

All times are in EDT time to prevent confusion due to time zone crossing. See the VH-WSF flight status page for this flight to view local times or setup timezone preferences in your user account.

Time Position Orientation Groundspeed Altitude Reporting Facility
EDT Latitude Longitude Course Direction KTS MPH feet Rate Location/Type
Thu 04:02:36 AM -18.5913 121.8619 29° Northeast 100  Level Aus ATC (Calculated)
Thu 04:04:00 AM -18.5545 121.8832 29° Northeast  Level FlightAware Approximate
Thu 04:05:00 AM -18.5283 121.8985 29° Northeast  Level FlightAware Approximate
Thu 04:05:55 AM -18.5111 121.9078 32° Northeast 100  Level Aus ATC (Calculated)
Thu 04:06:00 AM -18.5021 121.9137 29° Northeast  Level FlightAware Approximate
Thu 04:07:00 AM -18.4758 121.9290 29° Northeast  Level FlightAware Approximate
Thu 04:08:00 AM -18.4565 121.9396 29° Northeast  Level FlightAware Approximate
Thu 04:09:00 AM -18.4303 121.9548 29° Northeast  Level FlightAware Approximate
Thu 04:10:00 AM -18.4040 121.9701 29° Northeast  Level FlightAware Approximate
Thu 04:11:00 AM -18.3778 121.9853 29° Northeast  Level FlightAware Approximate
Thu 04:12:00 AM -18.3516 122.0005 29° Northeast  Level FlightAware Approximate
Thu 04:12:49 AM -18.1602 122.1080 208° Southwest 100  Level Aus ATC (Calculated)
Thu 04:13:00 AM -18.3253 122.0158 29° Northeast  Level FlightAware Approximate
Thu 04:14:00 AM -18.1294 122.1264 30° Northeast  Level FlightAware Approximate
Thu 04:15:00 AM -18.1033 122.1419 30° Northeast  Level FlightAware Approximate
Thu 04:16:00 AM -18.0773 122.1574 30° Northeast  Level FlightAware Approximate
Thu 04:16:37 AM -17.9998 122.2035 25° Northeast 400  Level Aus ATC (Calculated)
Thu 04:17:00 AM -17.9747 122.2156 39° Northeast 100 -783 Descending Aus ATC (Calculated)
Thu 04:18:00 AM -17.9637 122.2250 29° Northeast  Level FlightAware Approximate
Thu 04:19:00 AM -17.9447 122.2317 33° Northeast  Level Estimated
Thu 04:20:00 AM -17.9447 122.2317 115° Southeast  Level Estimated
Thu 04:21:00 AM -17.9447 122.2317 115° Southeast  Level Estimated
Thu 04:22:00 AM -17.9447 122.2317 115° Southeast  Level Estimated
Thu 04:23:00 AM -17.9447 122.2317 115° Southeast  Level Estimated
Thu 04:24:00 AM -17.9447 122.2317 115° Southeast  Level Estimated
Thu 04:25:00 AM -17.9447 122.2317 115° Southeast  Level Estimated
Thu 04:26:00 AM -17.9463 122.2353 29° Northeast  Level FlightAware Approximate
Thu 04:27:00 AM -17.9447 122.2317 295° West  Level Estimated
Thu 04:28:00 AM -17.9463 122.2353 29° Northeast  Level FlightAware Approximate
Thu 04:29:00 AM -17.9447 122.2317 295° West  Level Estimated
Thu 04:30:00 AM -17.9463 122.2353 29° Northeast  Level FlightAware Approximate
Thu 04:31:00 AM -17.9447 122.2317 295° West  Level Estimated
Thu 04:32:00 AM -17.9463 122.2353 29° Northeast  Level FlightAware Approximate
Thu 04:33:00 AM -17.9447 122.2317 295° West  Level Estimated
Thu 04:34:00 AM -17.9463 122.2353 29° Northeast  Level FlightAware Approximate
Thu 04:35:00 AM -17.9447 122.2317 295° West  Level Estimated
Thu 04:36:00 AM -17.9463 122.2353 29° Northeast  Level FlightAware Approximate
Thu 04:37:00 AM -17.9447 122.2317 295° West  Level Estimated
Thu 04:38:00 AM -17.9463 122.2353 29° Northeast  Level FlightAware Approximate

Login

Don't have an account? Register now (free) for customized features, flight alerts, and more!